createdAt,value
2022-08-14T00:00:35.996Z,0.00
2022-08-14T00:01:54.796Z,0.00
2022-08-14T00:02:44.342Z,0.00
2022-08-14T00:03:35.997Z,0.00
2022-08-14T00:04:42.384Z,0.00
2022-08-14T00:05:36.023Z,0.00
2022-08-14T00:06:36.032Z,0.00
2022-08-14T00:07:36.031Z,0.00
2022-08-14T00:08:44.944Z,0.00
2022-08-14T00:09:56.065Z,0.00
2022-08-14T00:10:49.961Z,0.00
2022-08-14T00:11:36.041Z,0.00
2022-08-14T00:12:37.600Z,0.00
2022-08-14T00:13:36.058Z,0.00
2022-08-14T00:14:36.074Z,0.00
2022-08-14T00:15:48.332Z,0.00
2022-08-14T00:16:45.101Z,0.00
2022-08-14T00:17:38.004Z,0.00
2022-08-14T00:19:06.455Z,0.00
2022-08-14T00:19:36.090Z,0.00
2022-08-14T00:20:42.871Z,0.00
2022-08-14T00:21:36.121Z,0.00
2022-08-14T00:22:57.235Z,0.00
2022-08-14T00:23:36.118Z,0.00
2022-08-14T00:24:36.120Z,0.00
2022-08-14T00:25:42.489Z,0.00
2022-08-14T00:26:36.161Z,0.00
2022-08-14T00:27:37.760Z,0.00
2022-08-14T00:28:37.072Z,0.00
2022-08-14T00:29:40.481Z,0.00
2022-08-14T00:30:36.147Z,0.00
2022-08-14T00:31:45.740Z,0.00
2022-08-14T00:32:53.088Z,0.00
2022-08-14T00:33:51.717Z,0.00
2022-08-14T00:34:46.394Z,0.00
2022-08-14T00:36:34.092Z,0.00
2022-08-14T00:36:48.648Z,0.00
2022-08-14T00:37:36.193Z,0.00
2022-08-14T00:38:36.193Z,0.00
2022-08-14T00:39:36.274Z,0.00
2022-08-14T00:40:36.224Z,0.00
2022-08-14T00:41:36.207Z,0.00
2022-08-14T00:42:55.802Z,0.00
2022-08-14T00:43:36.245Z,0.00
2022-08-14T00:44:36.215Z,0.00
2022-08-14T00:45:36.215Z,0.00
2022-08-14T00:46:36.226Z,0.00
2022-08-14T00:47:44.647Z,0.00
2022-08-14T00:48:36.714Z,0.00
2022-08-14T00:49:37.958Z,0.00
2022-08-14T00:50:36.267Z,0.00
2022-08-14T00:51:38.177Z,0.00
2022-08-14T00:52:36.328Z,0.00
2022-08-14T00:53:36.262Z,0.00
2022-08-14T00:54:36.278Z,0.00
2022-08-14T00:55:36.291Z,0.00
2022-08-14T00:56:36.286Z,0.00
2022-08-14T00:57:36.300Z,0.00
2022-08-14T00:58:36.302Z,0.00
2022-08-14T00:59:36.306Z,0.00
2022-08-14T01:00:42.920Z,0.00
2022-08-14T01:01:36.393Z,0.00
2022-08-14T01:02:36.335Z,0.00
2022-08-14T01:03:36.312Z,0.00
2022-08-14T01:04:38.360Z,0.00
2022-08-14T01:05:50.938Z,0.00
2022-08-14T01:06:36.354Z,0.00
2022-08-14T01:07:38.721Z,0.00
2022-08-14T01:08:51.335Z,0.00
2022-08-14T01:09:36.358Z,0.00
2022-08-14T01:10:38.342Z,0.00
2022-08-14T01:11:36.418Z,0.00
2022-08-14T01:12:40.502Z,0.00
2022-08-14T01:13:42.921Z,0.00
2022-08-14T01:14:36.372Z,0.00
2022-08-14T01:15:57.519Z,0.00
2022-08-14T01:16:36.383Z,0.00
2022-08-14T01:17:36.399Z,0.00
2022-08-14T01:20:27.573Z,0.00
2022-08-14T01:21:08.462Z,0.00
2022-08-14T01:22:08.470Z,0.00
2022-08-14T01:23:08.473Z,0.00
2022-08-14T01:24:09.800Z,0.00
2022-08-14T01:25:08.490Z,0.00
2022-08-14T01:26:11.646Z,0.00
2022-08-14T01:27:08.500Z,0.00
2022-08-14T01:28:08.510Z,0.00
2022-08-14T01:29:11.009Z,0.00
2022-08-14T01:30:08.513Z,0.00
2022-08-14T01:31:08.517Z,0.00
2022-08-14T01:32:10.569Z,0.00
2022-08-14T01:33:08.512Z,0.00
2022-08-14T01:35:19.760Z,0.00
2022-08-14T01:35:19.829Z,0.00
2022-08-14T01:36:22.871Z,0.00
2022-08-14T01:37:08.538Z,0.00
2022-08-14T01:38:08.559Z,0.00
2022-08-14T01:39:09.696Z,0.00
2022-08-14T01:40:08.585Z,0.00
2022-08-14T01:41:14.739Z,0.00
2022-08-14T01:42:31.346Z,0.00
2022-08-14T01:43:08.582Z,0.00
2022-08-14T01:44:33.562Z,0.00
2022-08-14T01:45:08.587Z,0.00
2022-08-14T01:46:08.607Z,0.00
2022-08-14T01:47:08.586Z,0.00
2022-08-14T01:48:13.976Z,0.00
2022-08-14T01:49:08.600Z,0.00
2022-08-14T01:50:08.604Z,0.00
2022-08-14T01:51:19.443Z,0.00
2022-08-14T01:52:08.797Z,0.00
2022-08-14T01:53:08.627Z,0.00
2022-08-14T01:54:08.621Z,0.00
2022-08-14T01:55:08.644Z,0.00
2022-08-14T01:56:18.112Z,0.00
2022-08-14T01:57:08.654Z,0.00
2022-08-14T01:58:19.830Z,0.00
2022-08-14T01:59:09.810Z,0.00
2022-08-14T02:00:08.670Z,0.00
2022-08-14T02:01:08.832Z,0.00
2022-08-14T02:02:09.969Z,0.00
2022-08-14T02:03:08.682Z,0.00
2022-08-14T02:04:20.485Z,0.00
2022-08-14T02:05:08.695Z,0.00
2022-08-14T02:06:33.454Z,0.00
2022-08-14T02:07:08.697Z,0.00
2022-08-14T02:08:10.065Z,0.00
2022-08-14T02:09:19.210Z,0.00
2022-08-14T02:10:08.709Z,0.00
2022-08-14T02:11:08.710Z,0.00
2022-08-14T02:12:09.075Z,0.00
2022-08-14T02:13:08.720Z,0.00
2022-08-14T02:14:08.739Z,0.00
2022-08-14T02:15:08.753Z,0.00
2022-08-14T02:16:21.917Z,0.00
2022-08-14T02:17:08.743Z,0.00
2022-08-14T02:18:08.761Z,0.00
2022-08-14T02:19:08.772Z,0.00
2022-08-14T02:20:08.762Z,0.00
2022-08-14T02:21:08.769Z,0.00
2022-08-14T02:22:08.766Z,0.00
2022-08-14T02:23:09.090Z,0.00
2022-08-14T02:24:38.375Z,0.00
2022-08-14T02:25:08.807Z,0.00
2022-08-14T02:26:24.861Z,0.00
2022-08-14T02:28:22.973Z,0.00
2022-08-14T02:28:23.589Z,0.00
2022-08-14T02:29:08.815Z,0.00
2022-08-14T02:30:08.832Z,0.00
2022-08-14T02:31:09.073Z,0.00
2022-08-14T02:32:08.820Z,0.00
2022-08-14T02:33:08.823Z,0.00
2022-08-14T02:34:19.996Z,0.00
2022-08-14T02:35:08.876Z,0.00
2022-08-14T02:37:06.331Z,0.00
2022-08-14T02:37:08.851Z,0.00
2022-08-14T02:38:11.879Z,0.00
2022-08-14T02:39:08.868Z,0.00
2022-08-14T02:40:08.864Z,0.00
2022-08-14T02:41:11.191Z,0.00
2022-08-14T02:42:13.096Z,0.00
2022-08-14T02:43:08.903Z,0.00
2022-08-14T02:44:08.890Z,0.00
2022-08-14T02:45:08.897Z,0.00
2022-08-14T02:46:08.900Z,0.00
2022-08-14T02:47:15.110Z,0.00
2022-08-14T02:48:10.498Z,0.00
2022-08-14T02:49:08.918Z,0.00
2022-08-14T02:50:08.915Z,0.00
2022-08-14T02:51:09.235Z,0.00
2022-08-14T02:52:26.743Z,0.00
2022-08-14T02:53:09.016Z,0.00
2022-08-14T02:54:08.953Z,0.00
2022-08-14T02:55:08.952Z,0.00
2022-08-14T02:56:30.465Z,0.00
2022-08-14T02:57:15.478Z,0.00
2022-08-14T02:58:08.969Z,0.00
2022-08-14T02:59:08.978Z,0.00
2022-08-14T03:00:09.972Z,0.00
2022-08-14T03:01:09.016Z,0.00
2022-08-14T03:02:08.998Z,0.00
2022-08-14T03:03:09.036Z,0.00
2022-08-14T03:04:09.005Z,0.00
2022-08-14T03:05:08.987Z,0.00
2022-08-14T03:06:09.153Z,0.00
2022-08-14T03:07:09.000Z,0.00
2022-08-14T03:08:09.013Z,0.00
2022-08-14T03:09:09.021Z,0.00
2022-08-14T03:10:28.244Z,0.00
2022-08-14T03:11:09.031Z,0.00
2022-08-14T03:12:09.033Z,0.00
2022-08-14T03:13:19.042Z,0.00
2022-08-14T03:14:09.044Z,0.00
2022-08-14T03:15:09.057Z,0.00
2022-08-14T03:16:19.935Z,0.00
2022-08-14T03:17:09.050Z,0.00
2022-08-14T03:18:09.084Z,0.00
2022-08-14T03:19:09.076Z,0.00
2022-08-14T03:20:11.141Z,0.00
2022-08-14T03:21:09.076Z,0.00
2022-08-14T03:22:09.311Z,0.00
2022-08-14T03:23:09.119Z,0.00
2022-08-14T03:24:21.406Z,0.00
2022-08-14T03:25:10.006Z,0.00
2022-08-14T03:26:13.049Z,0.00
2022-08-14T03:27:09.112Z,0.00
2022-08-14T03:28:14.433Z,0.00
2022-08-14T03:29:13.851Z,0.00
2022-08-14T03:30:14.563Z,0.00
2022-08-14T03:31:13.519Z,0.00
2022-08-14T03:32:09.143Z,0.00
2022-08-14T03:33:09.147Z,0.00
2022-08-14T03:34:10.052Z,0.00
2022-08-14T03:35:09.481Z,0.00
2022-08-14T03:37:37.590Z,0.00
2022-08-14T03:37:50.836Z,0.00
2022-08-14T03:39:12.371Z,0.00
2022-08-14T03:39:15.935Z,0.00
2022-08-14T03:40:11.375Z,0.00
2022-08-14T03:41:09.193Z,0.00
2022-08-14T03:42:19.185Z,0.00
2022-08-14T03:43:09.214Z,0.00
2022-08-14T03:45:26.633Z,0.00
2022-08-14T03:45:27.067Z,0.00
2022-08-14T03:46:10.037Z,0.00
2022-08-14T03:47:09.232Z,0.00
2022-08-14T03:48:11.084Z,0.00
2022-08-14T03:49:09.217Z,0.00
2022-08-14T03:50:09.228Z,0.00
2022-08-14T03:51:09.221Z,0.00
2022-08-14T03:52:28.163Z,0.00
2022-08-14T03:53:09.255Z,0.00
2022-08-14T03:54:09.241Z,0.00
2022-08-14T03:55:09.251Z,0.00
2022-08-14T03:56:09.263Z,0.00
2022-08-14T03:57:09.263Z,0.00
2022-08-14T03:58:09.285Z,0.00
2022-08-14T03:59:10.371Z,0.00
2022-08-14T04:00:13.389Z,0.00
2022-08-14T04:01:09.321Z,0.00
2022-08-14T04:02:32.331Z,0.00
2022-08-14T04:03:09.284Z,0.00
2022-08-14T04:04:09.297Z,0.00
2022-08-14T04:05:12.792Z,0.00
2022-08-14T04:06:09.297Z,0.00
2022-08-14T04:07:09.316Z,0.00
2022-08-14T04:08:22.785Z,0.00
2022-08-14T04:09:09.320Z,0.00
2022-08-14T04:10:09.334Z,0.00
2022-08-14T04:11:10.287Z,0.00
2022-08-14T04:12:13.507Z,0.00
2022-08-14T04:13:09.337Z,0.00
2022-08-14T04:14:09.354Z,0.00
2022-08-14T04:15:09.352Z,0.00
2022-08-14T04:16:12.394Z,0.00
2022-08-14T04:17:09.980Z,0.00
2022-08-14T04:18:09.374Z,0.00
2022-08-14T04:19:09.368Z,0.00
2022-08-14T04:20:09.982Z,0.00
2022-08-14T04:21:09.395Z,0.00
2022-08-14T04:22:09.379Z,0.00
2022-08-14T04:23:09.384Z,0.00
2022-08-14T04:24:09.402Z,0.00
2022-08-14T04:25:09.398Z,0.00
2022-08-14T04:26:14.354Z,0.00
2022-08-14T04:27:09.907Z,0.00
2022-08-14T04:28:09.417Z,0.00
2022-08-14T04:29:15.452Z,0.00
2022-08-14T04:30:09.423Z,0.00
2022-08-14T04:31:09.457Z,0.00
2022-08-14T04:32:57.601Z,0.00
2022-08-14T04:33:17.119Z,0.00
2022-08-14T04:34:17.116Z,0.00
2022-08-14T04:35:10.691Z,0.00
2022-08-14T04:36:09.477Z,0.00
2022-08-14T04:37:09.494Z,0.00
2022-08-14T04:38:36.943Z,0.00
2022-08-14T04:39:09.469Z,5.63
2022-08-14T04:40:09.471Z,5.63
2022-08-14T04:41:09.496Z,5.63
2022-08-14T04:42:14.075Z,5.63
2022-08-14T04:43:09.501Z,5.63
2022-08-14T04:44:09.499Z,5.63
2022-08-14T04:45:09.504Z,5.63
2022-08-14T04:46:09.515Z,5.63
2022-08-14T04:47:09.549Z,5.63
2022-08-14T04:48:09.977Z,5.63
2022-08-14T04:49:09.522Z,5.63
2022-08-14T04:50:09.540Z,5.63
2022-08-14T04:51:09.545Z,5.63
2022-08-14T04:52:18.910Z,5.63
2022-08-14T04:53:09.554Z,5.63
2022-08-14T04:54:09.567Z,5.63
2022-08-14T04:55:09.564Z,11.25
2022-08-14T04:56:10.622Z,11.25
2022-08-14T04:57:09.558Z,11.25
2022-08-14T04:58:09.565Z,11.25
2022-08-14T04:59:11.131Z,11.25
2022-08-14T05:00:16.158Z,11.25
2022-08-14T05:01:13.032Z,11.25
2022-08-14T05:02:09.662Z,11.25
2022-08-14T05:03:09.598Z,11.25
2022-08-14T05:04:14.736Z,11.25
2022-08-14T05:05:09.600Z,11.25
2022-08-14T05:06:35.146Z,11.25
2022-08-14T05:07:09.611Z,16.88
2022-08-14T05:08:09.768Z,16.88
2022-08-14T05:09:14.047Z,16.88
2022-08-14T05:10:13.053Z,16.88
2022-08-14T05:11:11.996Z,16.88
2022-08-14T05:13:13.234Z,16.88
2022-08-14T05:13:24.369Z,16.88
2022-08-14T05:14:33.084Z,16.88
2022-08-14T05:15:09.665Z,16.88
2022-08-14T05:16:09.690Z,22.50
2022-08-14T05:17:09.659Z,22.50
2022-08-14T05:18:17.514Z,22.50
2022-08-14T05:19:24.785Z,28.13
2022-08-14T05:21:55.359Z,28.13
2022-08-14T05:22:00.223Z,28.13
2022-08-14T05:22:16.686Z,28.13
2022-08-14T05:23:11.039Z,28.13
2022-08-14T05:24:09.720Z,28.13
2022-08-14T05:25:09.728Z,28.13
2022-08-14T05:26:09.711Z,28.13
2022-08-14T05:27:09.738Z,28.13
2022-08-14T05:28:12.507Z,28.13
2022-08-14T05:29:11.951Z,28.13
2022-08-14T05:30:09.743Z,33.75
2022-08-14T05:31:09.748Z,33.75
2022-08-14T05:32:09.757Z,33.75
2022-08-14T05:33:09.759Z,33.75
2022-08-14T05:34:09.762Z,33.75
2022-08-14T05:35:09.781Z,39.38
2022-08-14T05:36:16.536Z,39.38
2022-08-14T05:37:09.795Z,39.38
2022-08-14T05:38:10.809Z,33.75
2022-08-14T05:39:09.795Z,33.75
2022-08-14T05:40:09.782Z,39.38
2022-08-14T05:41:09.814Z,39.38
2022-08-14T05:42:21.999Z,39.38
2022-08-14T05:43:09.823Z,45.00
2022-08-14T05:44:09.815Z,45.00
2022-08-14T05:45:11.248Z,39.38
2022-08-14T05:46:09.836Z,39.38
2022-08-14T05:47:09.829Z,39.38
2022-08-14T05:48:09.839Z,39.38
2022-08-14T05:49:09.831Z,45.00
2022-08-14T05:50:18.728Z,45.00
2022-08-14T05:51:09.843Z,45.00
2022-08-14T05:52:10.059Z,39.38
2022-08-14T05:53:09.870Z,39.38
2022-08-14T05:54:11.485Z,39.38
2022-08-14T05:55:09.882Z,39.38
2022-08-14T05:56:09.893Z,39.38
2022-08-14T05:57:09.920Z,45.00
2022-08-14T05:58:09.886Z,45.00
2022-08-14T05:59:09.885Z,45.00
2022-08-14T06:00:09.898Z,45.00
2022-08-14T06:01:10.291Z,45.00
2022-08-14T06:02:10.565Z,50.63
2022-08-14T06:03:09.912Z,50.63
2022-08-14T06:04:09.925Z,50.63
2022-08-14T06:05:09.922Z,45.00
2022-08-14T06:06:09.948Z,50.63
2022-08-14T06:07:09.954Z,50.63
2022-08-14T06:08:35.431Z,50.63
2022-08-14T06:09:10.230Z,50.63
2022-08-14T06:10:09.951Z,50.63
2022-08-14T06:11:09.969Z,50.63
2022-08-14T06:12:09.987Z,50.63
2022-08-14T06:13:09.977Z,50.63
2022-08-14T06:14:12.357Z,50.63
2022-08-14T06:15:09.996Z,50.63
2022-08-14T06:16:09.997Z,50.63
2022-08-14T06:17:09.999Z,50.63
2022-08-14T06:18:09.996Z,50.63
2022-08-14T06:19:11.279Z,50.63
2022-08-14T06:20:10.312Z,50.63
2022-08-14T06:21:13.505Z,50.63
2022-08-14T06:22:10.026Z,50.63
2022-08-14T06:23:10.036Z,50.63
2022-08-14T06:24:10.446Z,50.63
2022-08-14T06:25:10.031Z,56.25
2022-08-14T06:26:10.043Z,56.25
2022-08-14T06:27:10.716Z,56.25
2022-08-14T06:28:27.175Z,56.25
2022-08-14T06:29:10.070Z,56.25
2022-08-14T06:30:10.898Z,56.25
2022-08-14T06:31:10.085Z,56.25
2022-08-14T06:32:38.413Z,56.25
2022-08-14T06:33:10.084Z,56.25
2022-08-14T06:35:03.523Z,56.25
2022-08-14T06:35:13.162Z,56.25
2022-08-14T06:36:10.104Z,56.25
2022-08-14T06:37:10.116Z,61.88
2022-08-14T06:38:13.126Z,67.50
2022-08-14T06:39:10.811Z,67.50
2022-08-14T06:40:25.489Z,61.88
2022-08-14T06:41:10.886Z,61.88
2022-08-14T06:42:32.414Z,56.25
2022-08-14T06:43:10.155Z,61.88
2022-08-14T06:44:10.158Z,61.88
2022-08-14T06:45:10.167Z,61.88
2022-08-14T06:46:22.980Z,61.88
2022-08-14T06:47:10.179Z,61.88
2022-08-14T06:48:12.662Z,61.88
2022-08-14T06:49:10.193Z,67.50
2022-08-14T06:50:10.189Z,61.88
2022-08-14T06:51:10.194Z,67.50
2022-08-14T06:52:10.207Z,73.13
2022-08-14T06:53:10.232Z,67.50
2022-08-14T06:54:10.217Z,73.13
2022-08-14T06:55:10.229Z,84.38
2022-08-14T06:56:10.228Z,84.38
2022-08-14T06:57:10.239Z,78.75
2022-08-14T06:58:24.806Z,73.13
2022-08-14T06:59:10.272Z,78.75
2022-08-14T07:00:10.255Z,78.75
2022-08-14T07:01:10.305Z,84.38
2022-08-14T07:02:13.683Z,90.00
2022-08-14T07:03:12.224Z,95.63
2022-08-14T07:04:23.137Z,95.63
2022-08-14T07:05:10.310Z,95.63
2022-08-14T07:06:11.743Z,95.63
2022-08-14T07:07:10.311Z,101.25
2022-08-14T07:08:10.301Z,101.25
2022-08-14T07:09:10.332Z,101.25
2022-08-14T07:10:16.766Z,95.63
2022-08-14T07:11:10.341Z,95.63
2022-08-14T07:12:54.694Z,90.00
2022-08-14T07:13:10.776Z,90.00
2022-08-14T07:14:10.341Z,95.63
2022-08-14T07:15:10.363Z,95.63
2022-08-14T07:16:10.382Z,95.63
2022-08-14T07:17:10.377Z,95.63
2022-08-14T07:18:10.386Z,106.88
2022-08-14T07:19:10.403Z,101.25
2022-08-14T07:20:10.407Z,101.25
2022-08-14T07:21:10.395Z,101.25
2022-08-14T07:22:20.231Z,95.63
2022-08-14T07:23:19.869Z,90.00
2022-08-14T07:24:21.400Z,90.00
2022-08-14T07:25:10.429Z,84.38
2022-08-14T07:26:10.437Z,84.38
2022-08-14T07:27:10.458Z,84.38
2022-08-14T07:28:12.819Z,78.75
2022-08-14T07:29:10.447Z,78.75
2022-08-14T07:30:33.907Z,78.75
2022-08-14T07:31:10.469Z,78.75
2022-08-14T07:32:10.490Z,78.75
2022-08-14T07:33:10.499Z,78.75
2022-08-14T07:34:11.403Z,73.13
2022-08-14T07:35:10.497Z,73.13
2022-08-14T07:36:27.887Z,73.13
2022-08-14T07:37:10.533Z,78.75
2022-08-14T07:38:10.522Z,78.75
2022-08-14T07:39:12.517Z,78.75
2022-08-14T07:40:10.585Z,78.75
2022-08-14T07:41:14.769Z,78.75
2022-08-14T07:42:10.549Z,78.75
2022-08-14T07:43:14.141Z,73.13
2022-08-14T07:44:32.099Z,73.13
2022-08-14T07:45:10.570Z,73.13
2022-08-14T07:46:10.558Z,78.75
2022-08-14T07:47:10.585Z,73.13
2022-08-14T07:48:14.825Z,73.13
2022-08-14T07:49:10.608Z,78.75
2022-08-14T07:50:10.595Z,78.75
2022-08-14T07:51:11.349Z,78.75
2022-08-14T07:52:10.615Z,78.75
2022-08-14T07:53:10.638Z,78.75
2022-08-14T07:54:11.332Z,84.38
2022-08-14T07:55:10.637Z,84.38
2022-08-14T07:56:21.790Z,84.38
2022-08-14T07:57:12.604Z,84.38
2022-08-14T07:58:31.753Z,90.00
2022-08-14T08:01:07.408Z,90.00
2022-08-14T08:01:51.051Z,90.00
2022-08-14T08:02:42.301Z,90.00
2022-08-14T08:03:42.295Z,95.63
2022-08-14T08:04:42.265Z,95.63
2022-08-14T08:05:42.268Z,90.00
2022-08-14T08:06:42.287Z,90.00
2022-08-14T08:07:42.297Z,95.63
2022-08-14T08:08:42.295Z,95.63
2022-08-14T08:09:45.667Z,95.63
2022-08-14T08:11:02.429Z,101.25
2022-08-14T08:11:42.324Z,101.25
2022-08-14T08:12:42.336Z,101.25
2022-08-14T08:13:42.327Z,106.88
2022-08-14T08:14:56.049Z,106.88
2022-08-14T08:15:42.385Z,106.88
2022-08-14T08:16:42.351Z,112.50
2022-08-14T08:17:53.372Z,112.50
2022-08-14T08:18:42.387Z,112.50
2022-08-14T08:19:42.368Z,112.50
2022-08-14T08:20:42.415Z,112.50
2022-08-14T08:21:43.889Z,112.50
2022-08-14T08:22:43.331Z,118.13
2022-08-14T08:23:50.891Z,118.13
2022-08-14T08:24:42.434Z,118.13
2022-08-14T08:25:42.436Z,118.13
2022-08-14T08:26:42.443Z,118.13
2022-08-14T08:27:44.829Z,118.13
2022-08-14T08:28:43.966Z,118.13
2022-08-14T08:29:42.462Z,118.13
2022-08-14T08:30:49.252Z,118.13
2022-08-14T08:31:44.892Z,112.50
2022-08-14T08:32:42.647Z,118.13
2022-08-14T08:33:42.551Z,112.50
2022-08-14T08:34:42.501Z,112.50
2022-08-14T08:35:46.963Z,106.88
2022-08-14T08:36:42.522Z,106.88
2022-08-14T08:37:43.635Z,106.88
2022-08-14T08:39:15.088Z,101.25
2022-08-14T08:40:02.614Z,101.25
2022-08-14T08:40:42.665Z,101.25
2022-08-14T08:41:43.416Z,101.25
2022-08-14T08:42:52.231Z,101.25
2022-08-14T08:43:45.784Z,101.25
2022-08-14T08:44:42.576Z,95.63
2022-08-14T08:45:43.479Z,101.25
2022-08-14T08:46:42.596Z,101.25
2022-08-14T08:47:42.599Z,112.50
2022-08-14T08:48:50.149Z,118.13
2022-08-14T08:49:48.443Z,118.13
2022-08-14T08:50:42.649Z,112.50
2022-08-14T08:51:42.839Z,118.13
2022-08-14T08:52:42.735Z,118.13
2022-08-14T08:53:42.677Z,118.13
2022-08-14T08:54:42.666Z,112.50
2022-08-14T08:55:42.705Z,118.13
2022-08-14T08:56:42.833Z,112.50
2022-08-14T08:57:42.693Z,112.50
2022-08-14T08:58:42.705Z,118.13
2022-08-14T08:59:42.696Z,118.13
2022-08-14T09:00:43.000Z,118.13
2022-08-14T09:01:45.418Z,118.13
2022-08-14T09:02:42.729Z,123.75
2022-08-14T09:03:44.130Z,123.75
2022-08-14T09:04:45.425Z,123.75
2022-08-14T09:05:42.770Z,123.75
2022-08-14T09:07:09.130Z,123.75
2022-08-14T09:07:42.770Z,129.38
2022-08-14T09:08:42.778Z,129.38
2022-08-14T09:09:54.509Z,129.38
2022-08-14T09:10:42.802Z,135.00
2022-08-14T09:11:42.805Z,140.63
2022-08-14T09:12:46.671Z,135.00
2022-08-14T09:13:42.812Z,140.63
2022-08-14T09:14:42.814Z,140.63
2022-08-14T09:15:42.981Z,140.63
2022-08-14T09:16:46.418Z,140.63
2022-08-14T09:17:42.880Z,135.00
2022-08-14T09:18:42.864Z,135.00
2022-08-14T09:19:42.876Z,135.00
2022-08-14T09:20:42.880Z,135.00
2022-08-14T09:21:42.886Z,140.63
2022-08-14T09:22:48.034Z,140.63
2022-08-14T09:24:26.839Z,140.63
2022-08-14T09:24:44.127Z,140.63
2022-08-14T09:25:59.018Z,140.63
2022-08-14T09:26:42.927Z,140.63
2022-08-14T09:27:42.960Z,140.63
2022-08-14T09:28:42.974Z,140.63
2022-08-14T09:29:42.964Z,140.63
2022-08-14T09:30:42.956Z,140.63
2022-08-14T09:31:53.262Z,140.63
2022-08-14T09:32:58.821Z,140.63
2022-08-14T09:33:56.270Z,140.63
2022-08-14T09:34:57.943Z,146.25
2022-08-14T09:35:43.009Z,151.88
2022-08-14T09:36:43.747Z,157.50
2022-08-14T09:37:43.018Z,157.50
2022-08-14T09:38:43.070Z,157.50
2022-08-14T09:39:43.128Z,146.25
2022-08-14T09:40:43.042Z,140.63
2022-08-14T09:42:21.370Z,146.25
2022-08-14T09:42:45.200Z,151.88
2022-08-14T09:43:43.087Z,163.13
2022-08-14T09:44:45.846Z,168.75
2022-08-14T09:45:53.070Z,174.38
2022-08-14T09:46:43.106Z,180.00
2022-08-14T09:47:43.118Z,168.75
2022-08-14T09:48:43.271Z,157.50
2022-08-14T09:49:43.131Z,157.50
2022-08-14T09:50:43.131Z,157.50
2022-08-14T09:51:45.052Z,151.88
2022-08-14T09:52:46.411Z,151.88
2022-08-14T09:54:18.741Z,151.88
2022-08-14T09:54:43.202Z,146.25
2022-08-14T09:55:43.191Z,146.25
2022-08-14T09:56:43.212Z,151.88
2022-08-14T09:57:43.218Z,151.88
2022-08-14T09:58:43.224Z,151.88
2022-08-14T09:59:43.258Z,146.25
2022-08-14T10:00:43.237Z,151.88
2022-08-14T10:01:43.261Z,157.50
2022-08-14T10:02:46.180Z,163.13
2022-08-14T10:03:43.267Z,174.38
2022-08-14T10:04:46.022Z,174.38
2022-08-14T10:05:43.286Z,174.38
2022-08-14T10:06:43.290Z,174.38
2022-08-14T10:07:47.325Z,191.25
2022-08-14T10:08:44.282Z,191.25
2022-08-14T10:09:43.319Z,191.25
2022-08-14T10:10:43.331Z,191.25
2022-08-14T10:11:45.805Z,185.63
2022-08-14T10:12:43.452Z,185.63
2022-08-14T10:13:53.365Z,185.63
2022-08-14T10:14:43.366Z,196.88
2022-08-14T10:15:43.366Z,202.50
2022-08-14T10:16:43.949Z,202.50
2022-08-14T10:17:43.399Z,213.75
2022-08-14T10:18:43.395Z,247.50
2022-08-14T10:19:43.433Z,399.38
2022-08-14T10:20:45.903Z,652.50
2022-08-14T10:21:58.131Z,871.88
2022-08-14T10:23:15.034Z,1091.25
2022-08-14T10:23:43.481Z,1293.75
2022-08-14T10:24:43.457Z,1192.50
2022-08-14T10:25:43.478Z,1288.13
2022-08-14T10:26:43.497Z,1366.88
2022-08-14T10:27:43.498Z,613.13
2022-08-14T10:29:17.671Z,118.13
2022-08-14T10:29:43.507Z,168.75
2022-08-14T10:30:43.520Z,1631.25
2022-08-14T10:31:45.575Z,1614.38
2022-08-14T10:32:51.855Z,1721.25
2022-08-14T10:33:46.889Z,1800.00
2022-08-14T10:34:43.581Z,1828.13
2022-08-14T10:35:47.914Z,1659.38
2022-08-14T10:36:47.703Z,1642.50
2022-08-14T10:37:44.222Z,1805.63
2022-08-14T10:38:43.620Z,1946.25
2022-08-14T10:39:51.394Z,2041.88
2022-08-14T10:40:52.246Z,2137.50
2022-08-14T10:41:48.632Z,2131.88
2022-08-14T10:42:44.057Z,2143.13
2022-08-14T10:43:43.708Z,2210.63
2022-08-14T10:44:43.716Z,2221.88
2022-08-14T10:45:51.869Z,2233.13
2022-08-14T10:47:41.384Z,2233.13
2022-08-14T10:48:09.643Z,1451.25
2022-08-14T10:48:46.011Z,2266.88
2022-08-14T10:49:43.784Z,2295.00
2022-08-14T10:50:43.804Z,2328.75
2022-08-14T10:51:43.824Z,2295.00
2022-08-14T10:52:43.949Z,2334.38
2022-08-14T10:53:43.854Z,2278.13
2022-08-14T10:54:43.867Z,2261.25
2022-08-14T10:55:45.440Z,360.00
2022-08-14T10:56:43.910Z,2255.63
2022-08-14T10:57:43.937Z,568.13
2022-08-14T10:58:43.951Z,1991.25
2022-08-14T10:59:43.979Z,2295.00
2022-08-14T11:00:46.988Z,2295.00
2022-08-14T11:01:44.004Z,2345.63
2022-08-14T11:02:54.536Z,2362.50
2022-08-14T11:03:56.107Z,2379.38
2022-08-14T11:04:44.163Z,2379.38
2022-08-14T11:05:44.085Z,2385.00
2022-08-14T11:06:44.112Z,2390.63
2022-08-14T11:07:44.118Z,2373.75
2022-08-14T11:08:45.752Z,2351.25
2022-08-14T11:09:44.148Z,2345.63
2022-08-14T11:10:44.180Z,2334.38
2022-08-14T11:11:44.194Z,2272.50
2022-08-14T11:12:44.488Z,2227.50
2022-08-14T11:13:44.237Z,2182.50
2022-08-14T11:14:44.244Z,2160.00
2022-08-14T11:15:44.286Z,2148.75
2022-08-14T11:16:53.343Z,2120.63
2022-08-14T11:17:46.031Z,2115.00
2022-08-14T11:18:44.327Z,2109.38
2022-08-14T11:19:44.354Z,2070.00
2022-08-14T11:20:44.374Z,2002.50
2022-08-14T11:21:45.704Z,1923.75
2022-08-14T11:23:03.018Z,1603.13
2022-08-14T11:23:44.461Z,950.63
2022-08-14T11:24:54.424Z,596.25
2022-08-14T11:25:53.178Z,489.38
2022-08-14T11:26:44.501Z,478.13
2022-08-14T11:27:44.524Z,135.00
2022-08-14T11:28:48.170Z,405.00
2022-08-14T11:29:44.558Z,225.00
2022-08-14T11:30:48.929Z,298.13
2022-08-14T11:31:44.591Z,315.00
2022-08-14T11:32:44.837Z,292.50
2022-08-14T11:33:44.655Z,281.25
2022-08-14T11:34:44.648Z,264.38
2022-08-14T11:35:48.190Z,253.13
2022-08-14T11:37:04.308Z,247.50
2022-08-14T11:39:45.612Z,225.00
2022-08-14T11:40:16.364Z,219.38
2022-08-14T11:41:17.243Z,219.38
2022-08-14T11:42:57.688Z,213.75
2022-08-14T11:43:16.453Z,208.13
2022-08-14T11:44:17.902Z,208.13
2022-08-14T11:45:17.113Z,202.50
2022-08-14T11:46:17.977Z,196.88
2022-08-14T11:47:16.455Z,191.25
2022-08-14T11:49:01.961Z,185.63
2022-08-14T11:49:22.001Z,180.00
2022-08-14T11:50:25.182Z,168.75
2022-08-14T11:51:16.514Z,168.75
2022-08-14T11:52:16.531Z,163.13
2022-08-14T11:53:16.545Z,163.13
2022-08-14T11:54:19.422Z,157.50
2022-08-14T11:55:16.585Z,157.50
2022-08-14T11:56:17.555Z,151.88
2022-08-14T11:57:18.811Z,146.25
2022-08-14T11:58:24.380Z,146.25
2022-08-14T11:59:16.633Z,146.25
2022-08-14T12:00:19.670Z,140.63
2022-08-14T12:01:16.656Z,140.63
2022-08-14T12:02:35.980Z,135.00
2022-08-14T12:03:19.796Z,135.00
2022-08-14T12:04:21.764Z,135.00
2022-08-14T12:05:16.777Z,129.38
2022-08-14T12:06:29.535Z,129.38
2022-08-14T12:07:16.740Z,129.38
2022-08-14T12:08:16.750Z,123.75
2022-08-14T12:09:16.778Z,123.75
2022-08-14T12:10:27.229Z,118.13
2022-08-14T12:11:16.797Z,118.13
2022-08-14T12:12:35.313Z,112.50
2022-08-14T12:13:17.608Z,112.50
2022-08-14T12:14:29.426Z,112.50
2022-08-14T12:15:16.842Z,112.50
2022-08-14T12:16:20.784Z,106.88
2022-08-14T12:17:16.886Z,106.88
2022-08-14T12:18:19.633Z,106.88
2022-08-14T12:19:16.909Z,106.88
2022-08-14T12:20:29.919Z,106.88
2022-08-14T12:21:19.297Z,106.88
2022-08-14T12:22:17.686Z,106.88
2022-08-14T12:23:16.981Z,101.25
2022-08-14T12:24:35.597Z,106.88
2022-08-14T12:25:16.986Z,101.25
2022-08-14T12:26:39.078Z,106.88
2022-08-14T12:27:17.071Z,106.88
2022-08-14T12:28:26.971Z,106.88
2022-08-14T12:29:17.039Z,112.50
2022-08-14T12:30:21.210Z,106.88
2022-08-14T12:31:17.050Z,101.25
2022-08-14T12:32:17.068Z,101.25
2022-08-14T12:33:17.078Z,101.25
2022-08-14T12:34:20.021Z,101.25
2022-08-14T12:35:17.121Z,101.25
2022-08-14T12:36:20.663Z,106.88
2022-08-14T12:37:17.122Z,106.88
2022-08-14T12:38:19.538Z,106.88
2022-08-14T12:39:17.190Z,106.88
2022-08-14T12:40:19.608Z,106.88
2022-08-14T12:41:21.289Z,101.25
2022-08-14T12:42:34.140Z,61.88
2022-08-14T12:43:17.208Z,67.50
2022-08-14T12:44:17.227Z,106.88
2022-08-14T12:45:17.583Z,112.50
2022-08-14T12:46:26.793Z,112.50
2022-08-14T12:47:17.251Z,106.88
2022-08-14T12:48:21.184Z,106.88
2022-08-14T12:49:17.769Z,112.50
2022-08-14T12:50:17.298Z,112.50
2022-08-14T12:51:17.314Z,106.88
2022-08-14T12:52:17.551Z,106.88
2022-08-14T12:53:17.642Z,106.88
2022-08-14T12:54:26.051Z,112.50
2022-08-14T12:55:17.362Z,129.38
2022-08-14T12:56:22.620Z,135.00